Map

Track Data

SID SEASON NUMBER BASIN SUBBASIN NAME ISO_TIME NATURE LAT LON WMO_WIND WMO_PRES WMO_AGENCY TRACK_TYPE DIST2LAND LANDFALL IFLAG USA_AGENCY USA_ATCF_ID USA_LAT USA_LON USA_RECORD USA_STATUS USA_WIND USA_PRES USA_SSHS USA_R34_NE USA_R34_SE USA_R34_SW USA_R34_NW USA_R50_NE USA_R50_SE USA_R50_SW USA_R50_NW USA_R64_NE USA_R64_SE USA_R64_SW USA_R64_NW USA_POCI USA_ROCI USA_RMW USA_EYE TOKYO_LAT TOKYO_LON TOKYO_GRADE TOKYO_WIND TOKYO_PRES TOKYO_R50_DIR TOKYO_R50_LONG TOKYO_R50_SHORT TOKYO_R30_DIR TOKYO_R30_LONG TOKYO_R30_SHORT TOKYO_LAND CMA_LAT CMA_LON CMA_CAT CMA_WIND CMA_PRES HKO_LAT HKO_LON HKO_CAT HKO_WIND HKO_PRES NEWDELHI_LAT NEWDELHI_LON NEWDELHI_GRADE NEWDELHI_WIND NEWDELHI_PRES NEWDELHI_CI NEWDELHI_DP NEWDELHI_POCI REUNION_LAT REUNION_LON REUNION_TYPE REUNION_WIND REUNION_PRES REUNION_TNUM REUNION_CI REUNION_RMW REUNION_R34_NE REUNION_R34_SE REUNION_R34_SW REUNION_R34_NW REUNION_R50_NE REUNION_R50_SE REUNION_R50_SW REUNION_R50_NW REUNION_R64_NE REUNION_R64_SE REUNION_R64_SW REUNION_R64_NW BOM_LAT BOM_LON BOM_TYPE BOM_WIND BOM_PRES BOM_TNUM BOM_CI BOM_RMW BOM_R34_NE BOM_R34_SE BOM_R34_SW BOM_R34_NW BOM_R50_NE BOM_R50_SE BOM_R50_SW BOM_R50_NW BOM_R64_NE BOM_R64_SE BOM_R64_SW BOM_R64_NW BOM_ROCI BOM_POCI BOM_EYE BOM_POS_METHOD BOM_PRES_METHOD NADI_LAT NADI_LON NADI_CAT NADI_WIND NADI_PRES WELLINGTON_LAT WELLINGTON_LON WELLINGTON_WIND WELLINGTON_PRES DS824_LAT DS824_LON DS824_STAGE DS824_WIND DS824_PRES TD9636_LAT TD9636_LON TD9636_STAGE TD9636_WIND TD9636_PRES TD9635_LAT TD9635_LON TD9635_WIND TD9635_PRES TD9635_ROCI NEUMANN_LAT NEUMANN_LON NEUMANN_CLASS NEUMANN_WIND NEUMANN_PRES MLC_LAT MLC_LON MLC_CLASS MLC_WIND MLC_PRES USA_GUST BOM_GUST BOM_GUST_PER REUNION_GUST REUNION_GUST_PER USA_SEAHGT USA_SEARAD_NE USA_SEARAD_SE USA_SEARAD_SW USA_SEARAD_NW STORM_SPEED STORM_DIR
1941267N10148 1941 60 WP MM NOT_NAMED 1941-09-23 21:00:00 NR 10.0000 148.000 main 1357 1356 __________O___ -1 10.0000 148.000 4 7 280
1941267N10148 1941 60 WP MM NOT_NAMED 1941-09-24 00:00:00 NR 10.0614 147.641 main 1367 1367 __________P___ -1 10.0614 147.641 4 7 280
1941267N10148 1941 60 WP MM NOT_NAMED 1941-09-24 03:00:00 NR 10.1280 147.295 main 1367 1367 __________P___ -1 10.1280 147.295 4 7 282
1941267N10148 1941 60 WP MM NOT_NAMED 1941-09-24 06:00:00 NR 10.2056 146.977 main 1378 1378 __________P___ -1 10.2056 146.977 4 6 286
1941267N10148 1941 60 WP MM NOT_NAMED 1941-09-24 09:00:00 NR 10.3000 146.700 main 1389 1389 __________O___ -1 10.3000 146.700 4 5 293
1941267N10148 1941 60 WP MM NOT_NAMED 1941-09-24 12:00:00 NR 10.4144 146.471 main 1400 1400 __________P___ -1 10.4144 146.471 4 5 300
1941267N10148 1941 60 WP MM NOT_NAMED 1941-09-24 15:00:00 NR 10.5421 146.265 main 1412 1412 __________P___ -1 10.5421 146.265 4 5 302
1941267N10148 1941 60 WP MM NOT_NAMED 1941-09-24 18:00:00 NR 10.6737 146.052 main 1435 1435 __________P___ -1 10.6737 146.052 4 5 299
1941267N10148 1941 60 WP MM NOT_NAMED 1941-09-24 21:00:00 NR 10.8000 145.800 main 1448 1448 __________O___ -1 10.8000 145.800 4 6 291
1941267N10148 1941 60 WP MM NOT_NAMED 1941-09-25 00:00:00 NR 10.8911 145.464 main 1461 1461 __________P___ -1 10.8911 145.464 4 7 284
1941267N10148 1941 60 WP MM NOT_NAMED 1941-09-25 03:00:00 NR 10.9777 145.087 main 1477 1477 __________P___ -1 10.9777 145.087 4 8 284
1941267N10148 1941 60 WP MM NOT_NAMED 1941-09-25 06:00:00 NR 11.0754 144.692 main 1493 1493 __________P___ -1 11.0754 144.692 4 8 286
1941267N10148 1941 60 WP MM NOT_NAMED 1941-09-25 09:00:00 NR 11.2000 144.300 main 1511 1511 __________O___ -1 11.2000 144.300 4 8 292
1941267N10148 1941 60 WP MM NOT_NAMED 1941-09-25 12:00:00 NR 11.3669 143.955 main 1539 1539 __________P___ -1 11.3669 143.955 4 8 298
1941267N10148 1941 60 WP MM NOT_NAMED 1941-09-25 15:00:00 NR 11.5621 143.615 main 1570 1570 __________P___ -1 11.5621 143.615 4 8 301
1941267N10148 1941 60 WP MM NOT_NAMED 1941-09-25 18:00:00 NR 11.7763 143.267 main 1599 1599 __________P___ -1 11.7763 143.267 4 8 302
1941267N10148 1941 60 WP MM NOT_NAMED 1941-09-25 21:00:00 NR 12.0000 142.900 main 1609 1606 __________O___ -1 12.0000 142.900 4 9 300
1941267N10148 1941 60 WP MM NOT_NAMED 1941-09-26 00:00:00 NR 12.2137 142.500 main 1617 1614 __________P___ -1 12.2137 142.500 4 9 298
1941267N10148 1941 60 WP MM NOT_NAMED 1941-09-26 03:00:00 NR 12.4349 142.080 main 1626 1626 __________P___ -1 12.4349 142.080 4 10 298
1941267N10148 1941 60 WP MM NOT_NAMED 1941-09-26 06:00:00 NR 12.6636 141.644 main 1638 1634 __________P___ -1 12.6636 141.644 4 10 298
1941267N10148 1941 60 WP MM NOT_NAMED 1941-09-26 09:00:00 NR 12.9000 141.200 main 1642 1638 __________O___ -1 12.9000 141.200 4 10 299
1941267N10148 1941 60 WP MM NOT_NAMED 1941-09-26 12:00:00 NR 13.1386 140.757 main 1648 1599 __________P___ -1 13.1386 140.757 4 10 299
1941267N10148 1941 60 WP MM NOT_NAMED 1941-09-26 15:00:00 NR 13.3848 140.307 main 1599 1559 __________P___ -1 13.3848 140.307 4 10 300
1941267N10148 1941 60 WP MM NOT_NAMED 1941-09-26 18:00:00 NR 13.6386 139.854 main 1559 1512 __________P___ -1 13.6386 139.854 4 10 300
1941267N10148 1941 60 WP MM NOT_NAMED 1941-09-26 21:00:00 NR 13.9000 139.400 main 1512 1474 __________O___ -1 13.9000 139.400 4 10 301
1941267N10148 1941 60 WP MM NOT_NAMED 1941-09-27 00:00:00 NR 14.1553 138.958 main 1477 1428 __________P___ -1 14.1553 138.958 4 10 301
1941267N10148 1941 60 WP MM NOT_NAMED 1941-09-27 03:00:00 NR 14.4195 138.514 main 1428 1391 __________P___ -1 14.4195 138.514 4 10 302
1941267N10148 1941 60 WP MM NOT_NAMED 1941-09-27 06:00:00 NR 14.6990 138.064 main 1391 1345 __________P___ -1 14.6990 138.064 4 11 303
1941267N10148 1941 60 WP MM NOT_NAMED 1941-09-27 09:00:00 NR 15.0000 137.600 main 1345 1300 __________O___ -1 15.0000 137.600 4 11 304
1941267N10148 1941 60 WP MM NOT_NAMED 1941-09-27 12:00:00 NR 15.3203 137.102 main 1300 1257 __________P___ -1 15.3203 137.102 4 12 304
1941267N10148 1941 60 WP MM NOT_NAMED 1941-09-27 15:00:00 NR 15.6626 136.592 main 1260 1219 __________P___ -1 15.6626 136.592 4 12 306
1941267N10148 1941 60 WP MM NOT_NAMED 1941-09-27 18:00:00 NR 16.0235 136.086 main 1219 1185 __________P___ -1 16.0235 136.086 4 12 308
1941267N10148 1941 60 WP MM NOT_NAMED 1941-09-27 21:00:00 NR 16.4000 135.600 main 1185 1159 __________O___ -1 16.4000 135.600 4 12 310
1941267N10148 1941 60 WP MM NOT_NAMED 1941-09-28 00:00:00 NR 16.7688 135.157 main 1164 1135 __________P___ -1 16.7688 135.157 4 11 312
1941267N10148 1941 60 WP MM NOT_NAMED 1941-09-28 03:00:00 NR 17.1543 134.734 main 1136 1116 __________P___ -1 17.1543 134.734 4 11 315
1941267N10148 1941 60 WP MM NOT_NAMED 1941-09-28 06:00:00 NR 17.5626 134.319 main 1122 1104 __________P___ -1 17.5626 134.319 4 12 317
1941267N10148 1941 60 WP MM NOT_NAMED 1941-09-28 09:00:00 NR 18.0000 133.900 main 1111 1090 __________O___ -1 18.0000 133.900 4 13 317
1941267N10148 1941 60 WP MM NOT_NAMED 1941-09-28 12:00:00 NR 18.4838 133.413 main 1090 1074 __________P___ -1 18.4838 133.413 4 14 317
1941267N10148 1941 60 WP MM NOT_NAMED 1941-09-28 15:00:00 NR 18.9931 132.926 main 1071 1059 __________P___ -1 18.9931 132.926 4 14 319
1941267N10148 1941 60 WP MM NOT_NAMED 1941-09-28 18:00:00 NR 19.5058 132.476 main 1066 1042 __________P___ -1 19.5058 132.476 4 13 322
1941267N10148 1941 60 WP MM NOT_NAMED 1941-09-28 21:00:00 NR 20.0000 132.100 main 1044 1020 __________O___ -1 20.0000 132.100 4 11 327
1941267N10148 1941 60 WP MM NOT_NAMED 1941-09-29 00:00:00 NR 20.4337 131.828 main 1020 1010 __________P___ -1 20.4337 131.828 4 10 333
1941267N10148 1941 60 WP MM NOT_NAMED 1941-09-29 03:00:00 NR 20.8492 131.636 main 1010 1008 __________P___ -1 20.8492 131.636 4 9 340
1941267N10148 1941 60 WP MM NOT_NAMED 1941-09-29 06:00:00 NR 21.2652 131.501 main 1015 1012 __________P___ -1 21.2652 131.501 4 9 346
1941267N10148 1941 60 WP MM NOT_NAMED 1941-09-29 09:00:00 NR 21.7000 131.400 main 1019 995 __________O___ -1 21.7000 131.400 4 9 348
1941267N10148 1941 60 WP MM NOT_NAMED 1941-09-29 12:00:00 NR 22.1256 131.303 main 995 939 __________P___ -1 22.1256 131.303 4 9 350
1941267N10148 1941 60 WP MM NOT_NAMED 1941-09-29 15:00:00 NR 22.5800 131.233 main 939 883 __________P___ -1 22.5800 131.233 4 10 353
1941267N10148 1941 60 WP MM NOT_NAMED 1941-09-29 18:00:00 NR 23.0944 131.172 main 883 816 __________P___ -1 23.0944 131.172 4 11 354
1941267N10148 1941 60 WP MM NOT_NAMED 1941-09-29 21:00:00 NR 23.7000 131.100 main 816 737 __________O___ -1 23.7000 131.100 4 14 353
1941267N10148 1941 60 WP MM NOT_NAMED 1941-09-30 00:00:00 NR 24.4399 130.978 main 737 647 __________P___ -1 24.4399 130.978 4 16 352
1941267N10148 1941 60 WP MM NOT_NAMED 1941-09-30 03:00:00 NR 25.2678 130.844 main 636 547 __________P___ -1 25.2678 130.844 4 17 352
1941267N10148 1941 60 WP MM NOT_NAMED 1941-09-30 06:00:00 NR 26.1369 130.713 main 547 446 __________P___ -1 26.1369 130.713 4 18 353
1941267N10148 1941 60 WP MM NOT_NAMED 1941-09-30 09:00:00 NR 27.0000 130.600 main 446 380 __________O___ -1 27.0000 130.600 4 16 349
1941267N10148 1941 60 WP MM NOT_NAMED 1941-09-30 12:00:00 NR 27.6785 130.382 main 369 305 __________P___ -1 27.6785 130.382 4 14 346
1941267N10148 1941 60 WP MM NOT_NAMED 1941-09-30 15:00:00 NR 28.3599 130.207 main 294 217 __________P___ -1 28.3599 130.207 4 15 353
1941267N10148 1941 60 WP MM NOT_NAMED 1941-09-30 18:00:00 NR 29.1362 130.177 main 217 115 __________P___ -1 29.1362 130.177 4 18 5
1941267N10148 1941 60 WP MM NOT_NAMED 1941-09-30 21:00:00 NR 30.1000 130.400 main 104 0 __________O___ -1 30.1000 130.400 4 24 16
1941267N10148 1941 60 WP MM NOT_NAMED 1941-10-01 00:00:00 NR 31.4535 130.966 main 0 0 __________P___ -1 31.4535 130.966 4 31 23
1941267N10148 1941 60 WP MM NOT_NAMED 1941-10-01 03:00:00 NR 32.9778 131.818 main 0 0 __________P___ -1 32.9778 131.818 4 35 28
1941267N10148 1941 60 WP MM NOT_NAMED 1941-10-01 06:00:00 NR 34.5128 132.889 main 0 0 __________P___ -1 34.5128 132.889 4 35 33
1941267N10148 1941 60 WP MM NOT_NAMED 1941-10-01 09:00:00 NR 35.9000 134.100 main 42 42 __________O___ -1 35.9000 134.100 4 32 39
1941267N10148 1941 60 WP MM NOT_NAMED 1941-10-01 12:00:00 NR 37.0227 135.374 main 99 48 __________P___ -1 37.0227 135.374 4 29 46
1941267N10148 1941 60 WP MM NOT_NAMED 1941-10-01 15:00:00 NR 37.9159 136.686 main 56 56 __________P___ -1 37.9159 136.686 4 27 52
1941267N10148 1941 60 WP MM NOT_NAMED 1941-10-01 18:00:00 NR 38.6514 138.030 main 122 56 __________P___ -1 38.6514 138.030 4 25 57
1941267N10148 1941 60 WP MM NOT_NAMED 1941-10-01 21:00:00 NR 39.3000 139.400 main 48 __________O___ -1 39.3000 139.400 4 25 59

Digital Typhoon Data and Search

About IBTrACS Database

This database is a web-friendly format of International Best Track Archive for Climate Stewardship (IBTrACS), a global best track data archive curated by NOAA dating back to 1842.

Updated: 2021-10-08